Time;durP1;ratioP1;P1;durP2;ratioP2;P2;SDS_P1;SDS_P2;PMS_P1;PMS_P2;Temp;Humidity;BMP_temperature;BMP_pressure;BME280_temperature;BME280_humidity;BME280_pressure;Samples;Min_cycle;Max_cycle;Signal;HPM_P1;HPM_P2
2023/09/10 00:01:39;;;;;;;18.37;16.63;;;;;;;17.97;100.00;100254.38;5015437;28;20233;-68
2023/09/10 00:04:05;;;;;;;17.43;15.87;;;;;;;17.97;100.00;100251.78;5022796;28;20243;-70
2023/09/10 00:06:32;;;;;;;17.67;15.90;;;;;;;18.02;100.00;100251.41;5032748;28;20184;-70
2023/09/10 00:08:57;;;;;;;17.77;15.97;;;;;;;18.01;100.00;100252.34;5032234;28;20189;-70
2023/09/10 00:11:23;;;;;;;16.20;14.80;;;;;;;17.99;100.00;100246.47;5012901;28;20230;-69
2023/09/10 00:13:48;;;;;;;16.53;14.93;;;;;;;17.93;100.00;100246.97;5017521;28;20207;-71
2023/09/10 00:16:13;;;;;;;17.37;15.57;;;;;;;17.92;100.00;100246.13;5012833;28;20182;-70
2023/09/10 00:18:38;;;;;;;17.27;15.43;;;;;;;17.89;100.00;100242.00;5012768;28;20174;-70
2023/09/10 00:21:04;;;;;;;17.67;15.80;;;;;;;17.81;100.00;100240.97;5019171;28;20282;-71
2023/09/10 00:23:29;;;;;;;16.60;15.20;;;;;;;17.77;100.00;100244.81;5026667;28;20249;-71
2023/09/10 00:25:54;;;;;;;16.47;14.90;;;;;;;17.69;100.00;100243.66;5032300;28;20189;-70
2023/09/10 00:28:20;;;;;;;16.80;15.13;;;;;;;17.77;100.00;100250.00;5032439;28;20569;-71
2023/09/10 00:30:52;;;;;;;16.67;15.20;;;;;;;17.68;100.00;100249.78;5022079;28;20288;-70
2023/09/10 00:33:17;;;;;;;17.63;15.93;;;;;;;17.62;100.00;100252.91;5021062;28;20210;-70
2023/09/10 00:35:43;;;;;;;16.90;15.33;;;;;;;17.47;100.00;100243.75;5012100;28;20214;-70
2023/09/10 00:38:08;;;;;;;17.23;15.57;;;;;;;17.43;100.00;100246.59;5012501;28;20231;-69
2023/09/10 00:40:33;;;;;;;16.43;14.87;;;;;;;17.49;100.00;100252.25;5010323;28;20217;-69
2023/09/10 00:42:59;;;;;;;16.17;14.67;;;;;;;17.49;100.00;100244.44;5028820;28;20174;-71
2023/09/10 00:45:24;;;;;;;19.80;17.07;;;;;;;17.53;100.00;100244.06;5032160;28;20285;-71
2023/09/10 00:47:49;;;;;;;17.67;16.03;;;;;;;17.55;100.00;100238.75;5031934;28;20183;-70
2023/09/10 00:50:15;;;;;;;17.47;15.63;;;;;;;17.57;100.00;100237.66;5021790;28;20626;-70
2023/09/10 00:52:49;;;;;;;17.13;15.40;;;;;;;17.55;100.00;100243.94;5025019;28;20650;-69
2023/09/10 00:55:14;;;;;;;17.27;15.87;;;;;;;17.56;100.00;100241.25;5012031;28;20194;-69
2023/09/10 00:57:40;;;;;;;16.70;15.20;;;;;;;17.42;100.00;100241.53;5012028;28;20187;-70
2023/09/10 01:00:08;;;;;;;24.47;16.57;;;;;;;17.38;100.00;100242.75;5002718;28;20348;-69
2023/09/10 01:02:34;;;;;;;16.77;15.20;;;;;;;17.36;100.00;100248.03;5045799;28;20479;-70
2023/09/10 01:04:59;;;;;;;16.30;14.73;;;;;;;17.30;100.00;100245.13;5031771;28;20186;-70
2023/09/10 01:07:25;;;;;;;21.53;16.83;;;;;;;17.21;100.00;100249.28;5031846;28;20375;-70
2023/09/10 01:09:50;;;;;;;16.47;14.97;;;;;;;17.21;100.00;100251.88;5031217;28;20189;-70
2023/09/10 01:12:42;;;;;;;17.13;15.50;;;;;;;17.08;100.00;100250.28;5003389;28;20260;-70
2023/09/10 01:15:13;;;;;;;17.80;15.90;;;;;;;17.18;100.00;100254.72;5012004;28;20670;-71
2023/09/10 01:17:59;;;;;;;17.23;15.60;;;;;;;17.18;100.00;100255.56;5012059;28;20191;-69
2023/09/10 01:20:52;;;;;;;17.70;15.90;;;;;;;17.23;100.00;100257.81;5007829;28;20237;-71
2023/09/10 01:23:36;;;;;;;16.77;15.13;;;;;;;17.14;100.00;100248.97;5007455;28;20234;-70
2023/09/10 01:26:02;;;;;;;19.60;17.20;;;;;;;17.17;100.00;100259.09;5011733;28;20178;-69
2023/09/10 01:28:27;;;;;;;20.53;17.67;;;;;;;17.20;100.00;100253.66;5008409;28;20186;-70
2023/09/10 01:30:52;;;;;;;18.57;16.60;;;;;;;17.14;100.00;100250.72;5008307;28;20313;-70
2023/09/10 01:33:23;;;;;;;19.73;16.83;;;;;;;17.10;100.00;100247.53;5020275;28;20183;-70
2023/09/10 01:36:05;;;;;;;17.40;15.67;;;;;;;17.03;100.00;100246.38;5011851;28;20225;-70
2023/09/10 01:38:42;;;;;;;18.60;16.30;;;;;;;17.01;100.00;100249.09;5011997;28;20541;-70
2023/09/10 01:41:17;;;;;;;18.23;16.53;;;;;;;17.01;100.00;100249.09;5014565;28;20685;-69
2023/09/10 01:43:44;;;;;;;17.93;16.37;;;;;;;17.04;100.00;100246.28;5028985;28;20193;-69
2023/09/10 01:46:10;;;;;;;19.67;17.67;;;;;;;17.02;100.00;100248.16;5031162;28;20178;-70
2023/09/10 01:48:36;;;;;;;19.47;17.47;;;;;;;17.00;100.00;100249.22;5031307;28;20634;-70
2023/09/10 01:51:02;;;;;;;18.03;16.07;;;;;;;16.97;100.00;100252.06;5020713;28;20224;-71
2023/09/10 01:53:27;;;;;;;19.93;17.80;;;;;;;16.94;100.00;100253.13;5009708;28;20673;-71
2023/09/10 01:55:52;;;;;;;18.30;16.60;;;;;;;16.85;100.00;100251.25;5011443;28;20187;-70
2023/09/10 01:58:18;;;;;;;18.07;16.33;;;;;;;16.82;100.00;100246.25;5011848;28;20289;-70
2023/09/10 02:00:45;;;;;;;19.87;17.90;;;;;;;16.77;100.00;100251.84;5006769;28;20264;-70
2023/09/10 02:03:10;;;;;;;21.17;19.07;;;;;;;16.65;100.00;100248.41;5023302;28;20202;-70
2023/09/10 02:05:35;;;;;;;20.77;18.57;;;;;;;16.60;100.00;100245.38;5034320;28;20642;-70
2023/09/10 02:08:01;;;;;;;20.43;18.53;;;;;;;16.63;100.00;100245.09;5033335;28;20182;-71
2023/09/10 02:10:27;;;;;;;19.43;17.67;;;;;;;16.54;100.00;100245.84;5024703;28;20226;-71
2023/09/10 02:12:53;;;;;;;20.23;18.23;;;;;;;16.54;100.00;100245.84;5013415;28;20203;-71
2023/09/10 02:15:18;;;;;;;18.40;16.47;;;;;;;16.57;100.00;100245.59;5015055;28;20221;-71
2023/09/10 02:17:43;;;;;;;18.83;17.23;;;;;;;16.58;100.00;100250.69;5015082;28;20536;-71
2023/09/10 02:20:09;;;;;;;20.93;17.57;;;;;;;16.60;100.00;100246.19;5006565;28;20582;-71
2023/09/10 02:22:39;;;;;;;18.70;16.93;;;;;;;16.58;100.00;100247.25;5036332;28;20234;-70
2023/09/10 02:25:05;;;;;;;19.63;17.53;;;;;;;16.57;100.00;100246.44;5033812;28;20643;-70
2023/09/10 02:27:31;;;;;;;21.50;17.90;;;;;;;16.50;100.00;100247.84;5034677;28;20257;-72
2023/09/10 02:29:57;;;;;;;19.10;17.20;;;;;;;16.53;100.00;100241.59;5033041;28;20197;-70
2023/09/10 02:32:23;;;;;;;19.03;17.20;;;;;;;16.57;100.00;100243.84;5020168;28;20254;-71
2023/09/10 02:34:49;;;;;;;18.60;16.80;;;;;;;16.55;100.00;100242.31;5014416;28;20186;-70
2023/09/10 02:37:14;;;;;;;19.07;17.27;;;;;;;16.60;100.00;100242.75;5014495;28;20491;-71
2023/09/10 02:39:40;;;;;;;18.57;16.97;;;;;;;16.51;100.00;100246.06;5013786;28;20352;-70
2023/09/10 02:42:05;;;;;;;19.10;17.47;;;;;;;16.53;100.00;100252.78;5024365;28;20272;-70
2023/09/10 02:44:30;;;;;;;19.37;17.33;;;;;;;16.48;100.00;100252.31;5031599;28;20650;-70
2023/09/10 02:46:55;;;;;;;19.43;17.63;;;;;;;16.44;100.00;100251.72;5034385;28;20177;-70
2023/09/10 02:49:21;;;;;;;18.53;16.83;;;;;;;16.46;100.00;100249.84;5034378;28;20313;-71
2023/09/10 02:51:48;;;;;;;18.10;16.50;;;;;;;16.45;100.00;100252.56;5013623;28;20226;-71
2023/09/10 02:54:13;;;;;;;18.13;16.53;;;;;;;16.43;100.00;100257.88;5021434;28;20598;-70
2023/09/10 02:56:39;;;;;;;18.10;16.40;;;;;;;16.43;100.00;100255.28;5033058;28;20277;-70
2023/09/10 02:59:04;;;;;;;18.80;16.90;;;;;;;16.40;100.00;100254.69;5032599;28;20208;-71
2023/09/10 03:01:30;;;;;;;19.40;17.43;;;;;;;16.37;100.00;100252.31;5022647;28;20226;-70
2023/09/10 03:03:55;;;;;;;20.43;18.30;;;;;;;16.30;100.00;100251.97;5017843;28;20230;-70
2023/09/10 03:06:20;;;;;;;22.40;19.53;;;;;;;16.25;100.00;100247.13;5014059;28;20182;-71
2023/09/10 03:08:45;;;;;;;20.77;19.00;;;;;;;16.17;100.00;100254.66;5014305;28;20194;-71
2023/09/10 03:11:11;;;;;;;19.80;17.73;;;;;;;16.15;100.00;100259.16;5015507;28;20229;-71
2023/09/10 03:13:36;;;;;;;18.90;17.03;;;;;;;16.09;100.00;100265.63;5026377;28;20774;-72
2023/09/10 03:16:01;;;;;;;18.93;17.07;;;;;;;16.13;100.00;100259.25;5032162;28;20181;-70
2023/09/10 03:18:27;;;;;;;18.70;17.10;;;;;;;16.11;100.00;100268.94;5033547;28;20190;-69
2023/09/10 03:20:53;;;;;;;17.63;16.03;;;;;;;16.11;100.00;100268.94;5022868;28;20316;-70
2023/09/10 03:23:19;;;;;;;19.40;17.47;;;;;;;16.13;100.00;100263.63;5021332;28;20235;-71
2023/09/10 03:25:45;;;;;;;20.27;18.47;;;;;;;16.09;100.00;100263.03;5013770;28;20548;-70
2023/09/10 03:28:10;;;;;;;20.73;18.37;;;;;;;16.06;100.00;100265.03;5013714;28;20186;-71
2023/09/10 03:30:36;;;;;;;20.73;18.63;;;;;;;16.00;100.00;100274.13;4987956;28;20287;-71
2023/09/10 03:33:01;;;;;;;22.10;19.77;;;;;;;15.91;100.00;100269.59;5024148;28;20185;-69
2023/09/10 03:35:26;;;;;;;22.13;19.77;;;;;;;15.88;100.00;100256.88;5013330;28;20213;-69
2023/09/10 03:37:52;;;;;;;22.03;19.77;;;;;;;15.86;100.00;100256.94;5013051;28;20261;-69
2023/09/10 03:40:17;;;;;;;20.57;18.17;;;;;;;15.88;100.00;100257.69;5007439;28;20218;-69
2023/09/10 03:42:42;;;;;;;19.43;17.73;;;;;;;15.89;100.00;100256.75;5038878;28;20208;-71
2023/09/10 03:45:08;;;;;;;21.97;17.97;;;;;;;15.91;100.00;100259.22;5032717;28;20224;-71
2023/09/10 03:47:36;;;;;;;20.37;18.47;;;;;;;15.96;100.00;100257.09;5033141;28;20185;-70
2023/09/10 03:50:01;;;;;;;19.67;17.57;;;;;;;15.99;100.00;100259.47;5032814;28;20189;-70
2023/09/10 03:52:27;;;;;;;20.03;17.93;;;;;;;15.92;100.00;100255.69;5018048;28;20674;-70
2023/09/10 03:54:52;;;;;;;19.33;17.53;;;;;;;15.93;100.00;100257.34;5013299;28;20182;-70
2023/09/10 03:57:17;;;;;;;19.57;17.77;;;;;;;15.91;100.00;100267.81;5013294;28;20190;-70
2023/09/10 03:59:42;;;;;;;20.17;18.13;;;;;;;15.92;100.00;100264.28;4995203;28;20587;-70
2023/09/10 04:02:08;;;;;;;19.80;17.90;;;;;;;15.87;100.00;100260.41;5003683;28;20277;-70
2023/09/10 04:04:34;;;;;;;18.37;16.57;;;;;;;15.90;100.00;100262.75;5012688;28;20205;-70
2023/09/10 04:06:59;;;;;;;20.40;18.53;;;;;;;15.88;100.00;100264.66;5012934;28;20197;-70
2023/09/10 04:09:25;;;;;;;20.00;17.63;;;;;;;15.84;100.00;100268.38;5013272;28;20198;-69
2023/09/10 04:11:50;;;;;;;19.00;17.27;;;;;;;15.85;100.00;100273.47;5003904;28;20229;-70
2023/09/10 04:14:15;;;;;;;21.90;16.87;;;;;;;15.82;100.00;100268.50;5014398;28;20257;-73
2023/09/10 04:16:41;;;;;;;19.40;16.97;;;;;;;15.82;100.00;100271.09;5011622;28;20202;-70
2023/09/10 04:19:06;;;;;;;19.60;17.80;;;;;;;15.82;100.00;100274.50;5012509;28;20695;-69
2023/09/10 04:21:31;;;;;;;21.23;19.00;;;;;;;15.72;100.00;100270.91;5013249;28;20218;-70
2023/09/10 04:23:57;;;;;;;20.20;18.17;;;;;;;15.71;100.00;100273.63;5016529;28;20183;-70
2023/09/10 04:26:22;;;;;;;19.43;17.27;;;;;;;15.71;100.00;100274.44;5012377;28;20194;-70
2023/09/10 04:28:47;;;;;;;18.67;16.90;;;;;;;15.61;100.00;100276.06;5012903;28;20665;-69
2023/09/10 04:31:16;;;;;;;20.23;18.13;;;;;;;15.60;100.00;100271.81;5011632;28;20684;-70
2023/09/10 04:33:42;;;;;;;21.57;17.00;;;;;;;15.60;100.00;100277.00;5017402;28;20206;-70
2023/09/10 04:36:08;;;;;;;18.07;16.20;;;;;;;15.60;100.00;100267.47;5011263;28;20305;-69
2023/09/10 04:38:34;;;;;;;18.37;16.67;;;;;;;15.63;100.00;100276.78;5012516;28;20600;-70
2023/09/10 04:40:59;;;;;;;18.67;16.83;;;;;;;15.63;100.00;100277.59;5009451;28;20229;-71
2023/09/10 04:43:24;;;;;;;18.30;16.60;;;;;;;15.61;100.00;100286.44;5019898;28;20170;-71
2023/09/10 04:45:50;;;;;;;18.60;16.80;;;;;;;15.56;100.00;100284.19;5012023;28;20211;-71
2023/09/10 04:48:17;;;;;;;19.47;17.40;;;;;;;15.52;100.00;100277.56;5011089;28;20642;-69
2023/09/10 04:50:43;;;;;;;19.43;17.53;;;;;;;15.54;100.00;100285.22;5007072;28;20222;-68
2023/09/10 04:53:09;;;;;;;19.90;18.03;;;;;;;15.54;100.00;100283.47;5021967;28;20396;-70
2023/09/10 04:55:34;;;;;;;20.20;17.40;;;;;;;15.63;100.00;100289.75;5010876;28;20183;-70
2023/09/10 04:57:59;;;;;;;20.37;18.33;;;;;;;15.73;100.00;100282.13;5011957;28;20201;-69
2023/09/10 05:00:25;;;;;;;21.83;19.40;;;;;;;15.73;100.00;100282.13;5004603;28;20313;-70
2023/09/10 05:02:50;;;;;;;22.27;19.87;;;;;;;15.73;100.00;100282.94;5009917;28;20253;-70
2023/09/10 05:05:15;;;;;;;20.67;18.47;;;;;;;15.66;100.00;100294.72;5011786;28;20222;-70
2023/09/10 05:07:40;;;;;;;23.57;19.87;;;;;;;15.67;100.00;100295.56;5012107;28;20175;-70
2023/09/10 05:10:06;;;;;;;24.60;19.47;;;;;;;15.76;100.00;100294.88;5002376;28;20182;-70
2023/09/10 05:12:31;;;;;;;20.47;18.43;;;;;;;15.81;100.00;100306.56;5026406;28;20561;-70
2023/09/10 05:14:57;;;;;;;20.87;18.63;;;;;;;15.84;100.00;100315.06;5010689;28;20318;-70
2023/09/10 05:17:22;;;;;;;18.93;16.90;;;;;;;15.85;100.00;100311.53;5012217;28;20197;-69
2023/09/10 05:19:47;;;;;;;19.20;17.30;;;;;;;15.86;100.00;100323.59;5011581;28;20550;-71
2023/09/10 05:22:13;;;;;;;19.00;17.30;;;;;;;15.91;100.00;100316.28;5016455;28;20233;-69
2023/09/10 05:24:38;;;;;;;19.23;17.53;;;;;;;15.95;100.00;100326.34;5011934;28;20607;-71
2023/09/10 05:27:03;;;;;;;19.87;16.10;;;;;;;16.04;100.00;100318.78;5012067;28;20190;-70
2023/09/10 05:29:29;;;;;;;17.90;16.20;;;;;;;16.02;100.00;100321.50;5011950;28;20183;-70
2023/09/10 05:31:54;;;;;;;17.10;15.40;;;;;;;16.14;100.00;100324.97;5015246;28;20318;-69
2023/09/10 05:34:19;;;;;;;16.63;15.20;;;;;;;16.21;100.00;100323.56;5012717;28;20532;-71
2023/09/10 05:36:45;;;;;;;17.47;15.20;;;;;;;16.23;100.00;100321.66;5012258;28;20193;-71
2023/09/10 05:39:10;;;;;;;18.43;15.03;;;;;;;16.31;100.00;100323.72;5015617;28;20187;-70
2023/09/10 05:41:35;;;;;;;19.40;15.60;;;;;;;16.32;100.00;100325.34;5016870;28;20222;-70
2023/09/10 05:44:00;;;;;;;15.97;14.47;;;;;;;16.39;100.00;100317.94;5018599;28;20179;-70
2023/09/10 05:46:26;;;;;;;17.80;15.37;;;;;;;16.44;100.00;100323.59;5015799;28;20212;-70
2023/09/10 05:48:51;;;;;;;15.83;14.20;;;;;;;16.56;100.00;100314.03;5015675;28;20252;-71
2023/09/10 05:51:16;;;;;;;16.80;13.93;;;;;;;16.64;100.00;100316.88;5015013;28;20230;-71
2023/09/10 05:53:42;;;;;;;15.17;13.87;;;;;;;16.75;100.00;100319.47;5020443;28;20194;-70
2023/09/10 05:56:08;;;;;;;16.70;14.97;;;;;;;16.87;100.00;100320.31;5015591;28;20233;-69
2023/09/10 05:58:33;;;;;;;16.40;14.70;;;;;;;16.94;100.00;100324.13;5015332;28;20178;-71
2023/09/10 06:00:59;;;;;;;16.53;14.20;;;;;;;16.98;100.00;100319.53;5012408;28;20231;-71
2023/09/10 06:03:24;;;;;;;17.77;15.93;;;;;;;17.13;100.00;100322.69;5022348;28;20209;-68
2023/09/10 06:05:49;;;;;;;15.90;14.30;;;;;;;17.29;100.00;100324.06;5014996;28;20622;-72
2023/09/10 06:08:15;;;;;;;16.73;15.13;;;;;;;17.29;100.00;100329.25;5015154;28;20255;-69
2023/09/10 06:10:40;;;;;;;23.53;20.97;;;;;;;17.40;100.00;100322.28;5010074;28;20234;-72
2023/09/10 06:13:05;;;;;;;15.73;14.07;;;;;;;17.60;100.00;100325.06;5024995;28;20187;-69
2023/09/10 06:15:30;;;;;;;16.17;12.77;;;;;;;17.78;100.00;100329.72;5015176;28;20175;-70
2023/09/10 06:17:56;;;;;;;16.33;14.07;;;;;;;18.00;100.00;100321.81;5014764;28;21008;-70
2023/09/10 06:20:22;;;;;;;16.50;12.70;;;;;;;18.16;100.00;100328.34;5005964;28;20249;-71
2023/09/10 06:22:47;;;;;;;14.20;12.83;;;;;;;17.99;100.00;100325.38;5026626;28;20321;-69
2023/09/10 06:25:12;;;;;;;13.70;12.30;;;;;;;18.22;100.00;100323.47;5014821;28;20274;-70
2023/09/10 06:27:38;;;;;;;14.77;13.13;;;;;;;18.30;100.00;100322.00;5014878;28;20191;-69
2023/09/10 06:30:04;;;;;;;13.67;12.30;;;;;;;18.62;100.00;100321.03;5003488;28;20175;-70
2023/09/10 06:32:29;;;;;;;16.97;12.97;;;;;;;18.91;100.00;100328.19;5012877;28;20202;-70
2023/09/10 06:34:54;;;;;;;13.80;12.40;;;;;;;19.15;100.00;100330.44;5014793;28;20174;-70
2023/09/10 06:37:20;;;;;;;14.67;12.77;;;;;;;19.36;100.00;100335.56;5014960;28;20186;-70
2023/09/10 06:39:45;;;;;;;13.20;11.93;;;;;;;19.84;100.00;100332.19;5014628;28;20209;-69
2023/09/10 06:42:13;;;;;;;14.70;10.90;;;;;;;20.70;100.00;100334.88;5019500;28;20226;-70
2023/09/10 06:44:42;;;;;;;14.60;12.13;;;;;;;21.39;100.00;100328.31;5014662;28;20182;-69
2023/09/10 06:47:07;;;;;;;17.63;11.43;;;;;;;22.36;100.00;100328.47;5014401;28;20261;-69
2023/09/10 06:49:33;;;;;;;16.37;10.47;;;;;;;24.26;100.00;100341.19;5014321;28;20640;-70
2023/09/10 06:51:58;;;;;;;9.93;8.80;;;;;;;25.93;100.00;100339.16;5018334;28;20370;-70
2023/09/10 06:54:23;;;;;;;14.30;9.20;;;;;;;27.43;98.34;100336.44;5013292;28;20191;-70
2023/09/10 06:56:48;;;;;;;15.25;8.65;;;;;;;28.86;89.46;100339.84;5014618;28;20175;-69
2023/09/10 06:59:14;;;;;;;39.55;9.35;;;;;;;29.51;78.75;100342.03;5014628;28;20649;-69
2023/09/10 07:01:39;;;;;;;12.57;9.23;;;;;;;29.82;77.72;100352.03;5015830;28;20222;-70
2023/09/10 07:04:19;;;;;;;14.25;8.38;;;;;;;29.06;80.15;100356.59;5017253;28;20195;-71
2023/09/10 07:06:49;;;;;;;11.25;8.13;;;;;;;29.86;77.46;100349.78;5002253;28;20182;-71
2023/09/10 07:09:21;;;;;;;10.50;8.48;;;;;;;30.38;69.89;100357.88;5014091;28;20631;-70
2023/09/10 07:11:50;;;;;;;10.95;8.63;;;;;;;31.29;63.08;100357.94;5005734;28;20719;-71
2023/09/10 07:14:15;;;;;;;13.60;7.90;;;;;;;31.48;60.21;100361.47;5015335;28;20273;-72
2023/09/10 07:16:41;;;;;;;10.88;7.53;;;;;;;31.59;58.93;100367.94;5014204;28;20277;-71
2023/09/10 07:19:06;;;;;;;9.25;7.55;;;;;;;32.58;52.94;100361.91;5013907;28;20218;-71
2023/09/10 07:21:31;;;;;;;10.95;7.60;;;;;;;33.09;51.25;100365.16;5014390;28;20257;-71
2023/09/10 07:23:57;;;;;;;9.15;7.97;;;;;;;33.90;47.14;100362.09;5017482;28;20179;-71
2023/09/10 07:26:22;;;;;;;11.25;7.82;;;;;;;34.26;44.39;100361.00;5013858;28;20543;-71
2023/09/10 07:28:48;;;;;;;8.55;7.70;;;;;;;34.57;43.02;100366.19;5013509;28;20186;-70
2023/09/10 07:31:13;;;;;;;8.23;7.32;;;;;;;34.77;41.93;100371.13;4984887;28;20233;-70
2023/09/10 07:33:38;;;;;;;14.60;7.75;;;;;;;34.16;43.95;100368.81;5032201;28;20186;-70
2023/09/10 07:36:04;;;;;;;13.25;7.25;;;;;;;33.86;43.75;100372.41;5033566;28;20190;-70
2023/09/10 07:38:29;;;;;;;10.13;7.88;;;;;;;33.08;47.33;100374.19;5026458;28;20182;-71
2023/09/10 07:40:54;;;;;;;8.52;6.63;;;;;;;33.05;48.60;100372.00;5022729;28;20467;-71
2023/09/10 07:43:22;;;;;;;10.43;8.18;;;;;;;32.94;48.01;100374.38;5021465;28;20538;-70
2023/09/10 07:45:48;;;;;;;12.05;7.53;;;;;;;33.99;45.16;100371.38;5013163;28;20186;-70
2023/09/10 07:48:13;;;;;;;7.85;7.00;;;;;;;33.23;45.92;100371.09;5028707;28;20187;-69
2023/09/10 07:50:38;;;;;;;10.25;6.95;;;;;;;33.42;47.55;100369.22;5012977;28;20233;-69
2023/09/10 07:53:04;;;;;;;8.98;7.25;;;;;;;34.25;43.83;100371.94;5043414;28;20542;-70
2023/09/10 07:55:29;;;;;;;8.77;7.32;;;;;;;33.89;44.28;100368.47;5032998;28;20240;-70
2023/09/10 07:57:54;;;;;;;9.15;7.13;;;;;;;33.59;44.64;100374.69;5032480;28;20177;-69
2023/09/10 08:00:20;;;;;;;12.18;7.10;;;;;;;33.50;45.87;100368.06;5021602;28;20190;-70
2023/09/10 08:02:46;;;;;;;8.60;7.47;;;;;;;33.78;44.32;100373.53;5025234;28;20252;-69
2023/09/10 08:05:11;;;;;;;7.88;7.15;;;;;;;32.92;46.16;100371.13;5013053;28;20236;-70
2023/09/10 08:07:36;;;;;;;9.00;6.97;;;;;;;32.62;51.28;100379.06;5013162;28;20292;-69
2023/09/10 08:10:02;;;;;;;10.00;7.50;;;;;;;33.54;46.00;100374.56;5010221;28;20222;-69
2023/09/10 08:12:27;;;;;;;8.10;7.18;;;;;;;33.33;47.75;100379.41;5006872;28;20521;-70
2023/09/10 08:14:53;;;;;;;9.77;6.80;;;;;;;34.11;45.17;100376.69;5026911;28;20206;-68
2023/09/10 08:17:18;;;;;;;11.10;7.25;;;;;;;33.63;45.05;100371.31;5032663;28;20592;-70
2023/09/10 08:19:43;;;;;;;11.48;7.20;;;;;;;34.65;41.61;100373.03;5031895;28;20625;-69
2023/09/10 08:22:09;;;;;;;8.02;7.20;;;;;;;34.89;40.59;100369.25;5019597;28;20237;-69
2023/09/10 08:24:34;;;;;;;8.27;7.30;;;;;;;34.19;42.75;100367.53;5012623;28;20186;-69
2023/09/10 08:27:01;;;;;;;7.35;6.65;;;;;;;35.38;40.65;100367.97;5011526;28;20186;-70
2023/09/10 08:29:26;;;;;;;7.57;6.65;;;;;;;36.45;38.07;100375.94;5012407;28;20209;-70
2023/09/10 08:31:52;;;;;;;7.80;7.05;;;;;;;36.01;38.23;100371.34;5023736;28;20253;-70
2023/09/10 08:34:17;;;;;;;9.77;6.93;;;;;;;35.51;40.41;100370.31;5028839;28;20193;-69
2023/09/10 08:36:42;;;;;;;8.20;6.40;;;;;;;35.85;39.08;100380.19;5032684;28;20182;-70
2023/09/10 08:39:07;;;;;;;8.05;6.55;;;;;;;34.17;45.24;100367.75;5031097;28;20181;-69
2023/09/10 08:41:38;;;;;;;9.65;6.68;;;;;;;35.23;41.49;100369.28;5020784;28;20222;-70
2023/09/10 08:44:08;;;;;;;14.65;6.70;;;;;;;35.28;41.59;100359.72;5015087;28;20190;-69
2023/09/10 08:46:36;;;;;;;7.80;6.38;;;;;;;35.95;38.72;100368.81;5012435;28;20178;-69
2023/09/10 08:49:01;;;;;;;7.65;6.80;;;;;;;36.22;37.52;100366.25;5012020;28;20190;-69
2023/09/10 08:51:28;;;;;;;6.72;6.15;;;;;;;35.88;38.71;100362.84;5023522;28;20282;-69
2023/09/10 08:53:56;;;;;;;8.15;6.45;;;;;;;36.66;37.15;100362.78;5030014;28;20522;-71
2023/09/10 08:56:23;;;;;;;6.90;6.20;;;;;;;36.00;39.07;100363.56;5031853;28;20185;-69
2023/09/10 08:58:50;;;;;;;6.78;6.15;;;;;;;37.19;35.64;100370.25;5031668;28;20626;-69
2023/09/10 09:01:15;;;;;;;10.38;6.22;;;;;;;36.88;36.00;100369.97;5020278;28;20229;-68
2023/09/10 09:03:41;;;;;;;9.52;6.22;;;;;;;34.35;42.75;100361.50;5016267;28;20690;-70
2023/09/10 09:06:07;;;;;;;8.68;6.88;;;;;;;36.44;37.40;100366.25;5027248;28;20171;-69
2023/09/10 09:08:34;;;;;;;7.10;5.78;;;;;;;38.00;35.54;100366.59;5011892;28;20607;-70
2023/09/10 09:11:03;;;;;;;8.00;6.03;;;;;;;37.64;35.00;100371.72;5008915;28;20247;-69
2023/09/10 09:13:31;;;;;;;9.77;6.60;;;;;;;37.10;35.88;100372.59;5018654;28;20233;-69
2023/09/10 09:15:57;;;;;;;9.85;6.28;;;;;;;38.53;34.05;100369.25;5011968;28;20183;-69
2023/09/10 09:18:23;;;;;;;7.57;6.72;;;;;;;37.87;34.92;100367.88;5011897;28;20182;-68
2023/09/10 09:20:50;;;;;;;8.18;6.15;;;;;;;38.63;33.11;100365.78;5007859;28;20230;-69
2023/09/10 09:23:29;;;;;;;6.32;5.80;;;;;;;38.41;33.83;100363.28;5020251;28;20222;-69
2023/09/10 09:25:55;;;;;;;8.70;6.30;;;;;;;38.88;33.45;100359.66;5012193;28;20192;-70
2023/09/10 09:28:22;;;;;;;6.80;6.07;;;;;;;40.28;31.11;100373.78;5011854;28;20186;-70
2023/09/10 09:30:47;;;;;;;8.20;5.60;;;;;;;38.43;33.18;100364.63;5007869;28;20301;-70
2023/09/10 09:33:12;;;;;;;7.30;6.53;;;;;;;38.01;33.60;100362.00;5020831;28;20191;-69
2023/09/10 09:35:38;;;;;;;6.05;5.45;;;;;;;38.46;33.73;100360.63;5011853;28;20190;-69
2023/09/10 09:38:10;;;;;;;9.65;5.90;;;;;;;38.36;33.36;100352.53;5011633;28;20631;-70
2023/09/10 09:40:36;;;;;;;9.77;6.00;;;;;;;38.84;32.99;100350.53;5010610;28;20735;-69
2023/09/10 09:43:05;;;;;;;7.50;5.70;;;;;;;39.18;31.69;100349.19;5041842;28;20202;-69
2023/09/10 09:45:31;;;;;;;9.60;6.50;;;;;;;38.10;33.53;100342.47;5031779;28;20313;-69
2023/09/10 09:47:56;;;;;;;7.30;6.13;;;;;;;37.96;34.48;100335.97;5031356;28;20269;-71
2023/09/10 09:50:21;;;;;;;7.15;5.75;;;;;;;37.03;36.29;100334.47;5021271;28;20242;-71
2023/09/10 09:52:55;;;;;;;7.78;5.57;;;;;;;37.15;35.01;100327.06;5008601;28;20519;-70
2023/09/10 09:55:20;;;;;;;9.13;6.32;;;;;;;37.63;35.15;100327.97;5011752;28;20278;-69
2023/09/10 09:57:49;;;;;;;7.25;6.28;;;;;;;38.14;33.66;100331.19;5011507;28;20286;-70
2023/09/10 10:00:16;;;;;;;8.23;6.22;;;;;;;39.60;31.59;100331.94;5004870;28;20266;-70
2023/09/10 10:02:41;;;;;;;8.63;6.32;;;;;;;39.13;32.21;100330.38;5043030;28;20301;-70
2023/09/10 10:05:08;;;;;;;10.18;6.22;;;;;;;39.43;31.96;100324.16;5030971;28;20569;-69
2023/09/10 10:07:37;;;;;;;9.95;6.10;;;;;;;38.97;33.08;100324.19;5046715;28;20182;-69
2023/09/10 10:10:06;;;;;;;11.75;6.25;;;;;;;37.41;35.56;100319.22;5028167;28;20244;-69
2023/09/10 10:12:32;;;;;;;7.70;6.38;;;;;;;37.86;35.24;100311.72;5045416;28;20209;-70
2023/09/10 10:14:59;;;;;;;14.07;8.43;;;;;;;37.85;34.78;100308.25;5030988;28;20190;-69
2023/09/10 10:17:25;;;;;;;7.55;6.20;;;;;;;37.27;34.86;100306.22;5031346;28;20194;-70
2023/09/10 10:19:50;;;;;;;14.43;10.57;;;;;;;37.94;34.29;100303.19;5030687;28;20668;-70
2023/09/10 10:22:16;;;;;;;7.10;6.38;;;;;;;38.38;32.56;100297.47;5019144;28;20232;-70
2023/09/10 10:24:42;;;;;;;14.45;6.00;;;;;;;38.92;31.77;100302.69;5033981;28;20232;-70
2023/09/10 10:27:07;;;;;;;10.68;5.60;;;;;;;39.70;33.22;100293.47;5034897;28;20182;-70
2023/09/10 10:29:34;;;;;;;13.48;6.53;;;;;;;37.21;34.89;100288.50;5034447;28;20209;-69
2023/09/10 10:32:10;;;;;;;10.18;6.00;;;;;;;36.63;36.71;100289.06;5037476;28;20217;-70
2023/09/10 10:34:39;;;;;;;18.27;6.68;;;;;;;34.23;43.48;100283.25;5034785;28;20527;-69
2023/09/10 10:37:15;;;;;;;10.65;6.35;;;;;;;33.34;49.10;100270.91;5034579;28;20182;-69
2023/09/10 10:39:54;;;;;;;13.43;6.90;;;;;;;32.86;52.91;100272.66;5034026;28;20182;-69
2023/09/10 10:42:29;;;;;;;12.05;6.45;;;;;;;32.79;55.70;100276.22;5038582;28;20448;-70
2023/09/10 10:44:57;;;;;;;11.88;5.78;;;;;;;32.29;64.49;100271.16;5034429;28;20256;-69
2023/09/10 10:47:25;;;;;;;11.85;6.57;;;;;;;31.79;76.09;100261.41;5033106;28;20193;-70
2023/09/10 10:49:53;;;;;;;18.00;6.82;;;;;;;31.55;73.21;100262.03;5034330;28;20222;-71
2023/09/10 10:52:23;;;;;;;13.30;7.13;;;;;;;31.15;71.34;100259.72;5038686;28;20306;-68
2023/09/10 10:54:51;;;;;;;9.63;6.60;;;;;;;30.76;78.30;100258.91;5032862;28;20577;-69
2023/09/10 10:57:19;;;;;;;15.05;9.25;;;;;;;30.42;79.54;100258.25;5033718;28;20580;-70
2023/09/10 10:59:45;;;;;;;11.18;6.78;;;;;;;29.43;83.91;100250.31;5033861;28;20178;-69
2023/09/10 11:02:13;;;;;;;15.00;6.15;;;;;;;29.23;86.24;100256.38;5021219;28;20291;-70
2023/09/10 11:04:38;;;;;;;13.88;6.72;;;;;;;29.33;83.36;100245.41;5014207;28;20203;-69
2023/09/10 11:07:20;;;;;;;12.43;6.38;;;;;;;28.96;84.58;100244.94;5014372;28;20198;-70